Time;durP1;ratioP1;P1;durP2;ratioP2;P2;SDS_P1;SDS_P2;PMS_P1;PMS_P2;Temp;Humidity;BMP_temperature;BMP_pressure;BME280_temperature;BME280_humidity;BME280_pressure;Samples;Min_cycle;Max_cycle;Signal;HPM_P1;HPM_P2
2020/12/02 00:00:33;;;;;;;16.57;8.33;;;;;;;1.11;78.33;100521.41;1747614;82;21302;-71
2020/12/02 00:03:21;;;;;;;15.83;8.53;;;;;;;1.02;78.46;100522.43;1747592;82;21162;-71
2020/12/02 00:05:52;;;;;;;13.08;7.53;;;;;;;0.95;78.79;100527.36;1747596;82;21333;-71
2020/12/02 00:08:28;;;;;;;12.53;6.80;;;;;;;1.02;78.66;100531.55;1747567;82;21745;-71
2020/12/02 00:10:55;;;;;;;14.23;8.35;;;;;;;1.08;78.36;100526.69;1747045;82;21862;-72
2020/12/02 00:13:28;;;;;;;12.73;7.40;;;;;;;0.99;78.70;100532.92;1747720;82;21215;-71
2020/12/02 00:15:56;;;;;;;12.53;6.90;;;;;;;0.91;78.92;100530.88;1747871;82;21171;-72
2020/12/02 00:18:23;;;;;;;14.65;7.67;;;;;;;1.02;78.74;100531.55;1747764;82;21187;-72
2020/12/02 00:20:50;;;;;;;15.98;8.23;;;;;;;1.03;78.68;100531.97;1747915;82;21584;-71
2020/12/02 00:23:18;;;;;;;13.15;7.90;;;;;;;0.93;79.02;100530.42;1747445;82;21206;-72
2020/12/02 00:25:45;;;;;;;12.90;7.05;;;;;;;0.90;79.21;100527.89;1747913;82;21658;-71
2020/12/02 00:28:13;;;;;;;15.65;8.13;;;;;;;1.05;78.90;100535.42;1747443;82;21340;-72
2020/12/02 00:30:41;;;;;;;13.70;8.00;;;;;;;1.08;78.84;100531.44;1747590;82;21171;-71
2020/12/02 00:33:16;;;;;;;13.25;7.62;;;;;;;1.02;79.01;100533.31;1747653;81;21312;-72
2020/12/02 00:35:44;;;;;;;12.93;7.62;;;;;;;0.94;79.14;100533.45;1748023;82;21576;-72
2020/12/02 00:38:13;;;;;;;14.55;8.60;;;;;;;1.04;79.00;100532.39;1747759;82;21179;-73
2020/12/02 00:40:46;;;;;;;15.15;8.53;;;;;;;1.16;78.69;100526.55;1747840;82;21199;-72
2020/12/02 00:43:16;;;;;;;15.28;8.73;;;;;;;1.09;78.85;100530.56;1747705;82;21298;-72
2020/12/02 00:45:44;;;;;;;14.20;8.05;;;;;;;1.04;79.21;100536.76;1747837;82;21179;-72
2020/12/02 00:48:17;;;;;;;13.40;7.95;;;;;;;1.05;79.24;100530.64;1747492;82;21163;-72
2020/12/02 00:50:46;;;;;;;14.40;7.87;;;;;;;1.20;78.59;100542.52;1747638;82;21731;-73
2020/12/02 00:53:21;;;;;;;14.65;8.60;;;;;;;1.14;78.37;100532.63;1747632;82;21183;-72
2020/12/02 00:55:51;;;;;;;13.25;8.10;;;;;;;1.04;78.43;100532.39;1747496;82;21278;-73
2020/12/02 00:58:40;;;;;;;17.65;9.20;;;;;;;0.98;78.51;100532.08;1747623;82;21603;-72
2020/12/02 01:01:10;;;;;;;15.98;9.05;;;;;;;1.11;78.11;100543.13;1747431;82;21135;-72
2020/12/02 01:03:38;;;;;;;16.35;10.23;;;;;;;1.07;78.34;100537.53;1747656;82;21325;-71
2020/12/02 01:06:06;;;;;;;17.35;8.90;;;;;;;0.98;78.56;100537.71;1754451;82;21627;-72
2020/12/02 01:08:39;;;;;;;15.72;9.08;;;;;;;0.94;78.71;100536.05;1755870;82;21336;-70
2020/12/02 01:11:15;;;;;;;;;;;;;;;1.08;78.45;100524.08;1758323;82;21289;-71
2020/12/02 01:13:44;;;;;;;14.33;8.30;;;;;;;1.13;78.40;100524.40;1755885;82;20161;-71
2020/12/02 01:16:16;;;;;;;12.80;7.25;;;;;;;0.99;78.50;100523.80;1755623;81;21194;-72
2020/12/02 01:18:44;;;;;;;14.43;8.05;;;;;;;0.90;78.65;100533.94;1756033;82;21617;-73
2020/12/02 01:21:26;;;;;;;12.78;7.15;;;;;;;0.93;78.61;100527.39;1755620;82;21182;-72
2020/12/02 01:24:04;;;;;;;15.30;8.55;;;;;;;1.05;78.21;100522.81;1725985;82;21786;-72
2020/12/02 01:26:37;;;;;;;15.48;8.98;;;;;;;0.98;78.44;100522.08;1755913;82;21170;-72
2020/12/02 01:29:07;;;;;;;14.93;8.08;;;;;;;0.88;78.57;100520.08;1755829;82;21103;-72
2020/12/02 01:31:34;;;;;;;13.08;7.75;;;;;;;0.90;78.52;100517.02;1756129;80;21319;-72
2020/12/02 01:34:01;;;;;;;15.30;9.35;;;;;;;1.01;78.08;100514.23;1755871;82;21206;-71
2020/12/02 01:36:34;;;;;;;17.30;10.32;;;;;;;0.97;78.19;100515.15;1755757;82;21143;-71
2020/12/02 01:39:02;;;;;;;17.87;10.15;;;;;;;0.89;78.41;100519.20;1753638;81;21210;-72
2020/12/02 01:41:30;;;;;;;17.35;10.25;;;;;;;0.88;78.62;100506.20;1755815;82;21695;-72
2020/12/02 01:43:58;;;;;;;19.62;10.55;;;;;;;1.03;78.29;100505.92;1756048;81;21334;-72
2020/12/02 01:46:49;;;;;;;18.77;10.95;;;;;;;1.03;78.26;100505.92;1755800;82;22171;-72
2020/12/02 01:49:27;;;;;;;19.12;10.82;;;;;;;0.95;78.39;100502.62;1740178;82;21178;-72
2020/12/02 01:52:06;;;;;;;16.23;9.63;;;;;;;0.70;78.61;100480.91;1753175;82;21293;-71
2020/12/02 01:54:40;;;;;;;17.35;9.40;;;;;;;0.98;78.31;100502.55;1755981;82;21556;-71
2020/12/02 01:57:24;;;;;;;13.62;7.83;;;;;;;0.96;78.34;100501.28;1755753;82;21175;-72
2020/12/02 02:00:12;;;;;;;12.68;7.00;;;;;;;0.86;78.58;100493.64;1756043;81;21175;-72
2020/12/02 02:03:04;;;;;;;13.90;7.15;;;;;;;0.75;78.71;100493.40;1755764;82;21171;-73
2020/12/02 02:05:55;;;;;;;13.45;7.87;;;;;;;0.90;78.28;100492.73;1751865;81;21210;-72
2020/12/02 02:08:26;;;;;;;14.47;8.25;;;;;;;0.87;78.23;100490.16;1747578;82;21587;-72
2020/12/02 02:10:53;;;;;;;11.70;7.20;;;;;;;0.74;78.66;100495.61;1747295;82;21135;-72
2020/12/02 02:13:48;;;;;;;14.18;8.35;;;;;;;0.73;78.63;100496.49;1747429;82;21175;-71
2020/12/02 02:16:34;;;;;;;15.28;8.30;;;;;;;0.84;78.34;100492.38;1747575;82;21159;-71
2020/12/02 02:19:01;;;;;;;13.90;7.70;;;;;;;0.70;78.77;100496.53;1747685;82;21713;-71
2020/12/02 02:21:32;;;;;;;11.90;7.65;;;;;;;0.70;78.77;100496.53;1747368;82;21885;-72
2020/12/02 02:24:00;;;;;;;12.70;7.40;;;;;;;0.71;78.85;100496.95;1747665;82;21207;-72
2020/12/02 02:26:39;;;;;;;14.70;8.85;;;;;;;0.84;78.50;100498.05;1747675;82;21328;-71
2020/12/02 02:29:19;;;;;;;17.10;9.45;;;;;;;0.77;78.48;100498.15;1747776;82;21833;-72
2020/12/02 02:32:06;;;;;;;13.13;7.15;;;;;;;0.56;78.75;100476.40;1747521;81;21199;-71
2020/12/02 02:34:36;;;;;;;12.50;7.35;;;;;;;0.74;78.77;100490.41;1747557;82;21305;-72
2020/12/02 02:37:06;;;;;;;13.03;7.80;;;;;;;0.85;78.44;100493.26;1726528;82;21191;-71
2020/12/02 02:39:33;;;;;;;13.53;7.72;;;;;;;0.79;78.52;100492.48;1747470;82;21316;-71
2020/12/02 02:42:04;;;;;;;14.43;7.83;;;;;;;0.71;78.87;100490.44;1747447;82;21188;-71
2020/12/02 02:44:31;;;;;;;15.72;8.53;;;;;;;0.76;78.64;100494.28;1746573;82;21352;-72
2020/12/02 02:46:58;;;;;;;13.28;8.18;;;;;;;0.83;78.30;100495.86;1747469;82;21622;-72
2020/12/02 02:49:25;;;;;;;16.50;9.73;;;;;;;0.74;78.18;100498.22;1747622;82;21619;-72
2020/12/02 02:51:52;;;;;;;14.35;8.55;;;;;;;0.63;78.42;100501.45;1747627;82;21155;-72
2020/12/02 02:54:20;;;;;;;16.30;9.05;;;;;;;0.61;78.53;100496.24;1747565;82;21762;-71
2020/12/02 02:56:47;;;;;;;16.07;9.40;;;;;;;0.73;78.24;100493.02;1747694;82;21182;-72
2020/12/02 02:59:15;;;;;;;18.40;9.58;;;;;;;0.63;78.27;100494.94;1747582;82;21162;-71
2020/12/02 03:01:43;;;;;;;15.32;8.18;;;;;;;0.51;78.50;100498.59;1747795;82;21340;-72
2020/12/02 03:04:10;;;;;;;16.30;9.10;;;;;;;0.61;78.37;100507.11;1726691;82;21164;-72
2020/12/02 03:06:38;;;;;;;16.52;9.20;;;;;;;0.58;78.38;100500.67;1747704;82;21317;-72
2020/12/02 03:09:06;;;;;;;15.98;8.78;;;;;;;0.48;78.61;100499.50;1747779;82;21167;-72
2020/12/02 03:11:35;;;;;;;12.78;7.92;;;;;;;0.49;78.45;100500.38;1747677;82;21202;-72
2020/12/02 03:14:02;;;;;;;13.75;8.45;;;;;;;0.62;78.19;100501.02;1747724;82;21171;-71
2020/12/02 03:16:51;;;;;;;16.07;8.33;;;;;;;0.54;78.37;100493.77;1747659;82;21635;-71
2020/12/02 03:19:25;;;;;;;12.75;7.80;;;;;;;0.47;78.59;100501.71;1747743;82;21286;-72
2020/12/02 03:21:54;;;;;;;;;;;;;;;0.55;78.64;100501.58;1750271;82;21159;-71
2020/12/02 03:24:21;;;;;;;13.75;8.45;;;;;;;0.66;78.33;100497.48;1747545;82;20296;-70
2020/12/02 03:26:49;;;;;;;14.93;8.28;;;;;;;0.57;78.50;100497.19;1747575;82;21151;-71
2020/12/02 03:29:16;;;;;;;13.05;7.80;;;;;;;0.51;78.65;100492.53;1747764;82;21699;-71
2020/12/02 03:31:44;;;;;;;14.45;7.40;;;;;;;0.48;78.83;100502.10;1747705;81;21159;-71
2020/12/02 03:34:14;;;;;;;15.15;8.43;;;;;;;0.64;78.49;100502.72;1747495;82;21175;-71
2020/12/02 03:36:42;;;;;;;12.82;7.83;;;;;;;0.67;78.40;100504.41;1747529;82;21325;-71
2020/12/02 03:39:11;;;;;;;15.25;8.78;;;;;;;0.59;78.43;100500.64;1747460;82;21492;-71
2020/12/02 03:41:38;;;;;;;12.43;7.17;;;;;;;0.52;78.56;100492.50;1747647;82;21619;-71
2020/12/02 03:44:05;;;;;;;12.90;7.40;;;;;;;0.62;78.30;100503.62;1747436;82;21198;-71
2020/12/02 03:46:33;;;;;;;14.93;7.90;;;;;;;0.66;78.10;100494.87;1747672;82;21159;-71
2020/12/02 03:49:02;;;;;;;13.65;7.53;;;;;;;0.58;78.37;100492.86;1747441;82;21170;-71
2020/12/02 03:51:32;;;;;;;13.55;7.95;;;;;;;0.50;78.42;100492.99;1747490;82;21155;-72
2020/12/02 03:53:59;;;;;;;13.15;8.08;;;;;;;0.58;78.26;100492.86;1747481;82;21730;-72
2020/12/02 03:56:27;;;;;;;12.28;6.58;;;;;;;0.64;78.18;100495.36;1747471;82;21163;-71
2020/12/02 03:58:54;;;;;;;14.98;7.92;;;;;;;0.57;78.34;100492.44;1747630;82;21297;-71
2020/12/02 04:01:21;;;;;;;14.78;8.38;;;;;;;0.49;78.43;100505.58;1747519;82;21643;-72
2020/12/02 04:03:48;;;;;;;14.55;8.40;;;;;;;0.52;78.12;100505.97;1747687;82;21309;-72
2020/12/02 04:06:16;;;;;;;14.18;8.80;;;;;;;0.59;77.66;100495.85;1750587;82;21171;-71
2020/12/02 04:08:44;;;;;;;14.60;8.30;;;;;;;0.47;77.91;100500.41;1753328;82;21190;-71
2020/12/02 04:11:12;;;;;;;16.70;9.13;;;;;;;0.40;78.18;100504.44;1753184;82;21210;-71
2020/12/02 04:13:40;;;;;;;13.88;8.30;;;;;;;0.47;78.03;100504.31;1753170;82;21191;-72
2020/12/02 04:16:09;;;;;;;16.77;9.60;;;;;;;0.49;77.94;100510.33;1753377;82;21202;-72
2020/12/02 04:18:36;;;;;;;15.78;9.23;;;;;;;0.39;77.97;100506.16;1753127;82;21147;-71
2020/12/02 04:21:03;;;;;;;18.98;9.70;;;;;;;0.28;78.00;100504.17;1753057;82;21175;-71
2020/12/02 04:23:30;;;;;;;18.23;10.00;;;;;;;0.37;77.65;100513.16;1753080;82;21333;-70
2020/12/02 04:25:57;;;;;;;20.30;11.25;;;;;;;0.38;77.61;100507.05;1753191;82;21231;-71
2020/12/02 04:28:24;;;;;;;20.30;10.60;;;;;;;0.30;77.82;100505.02;1753141;82;21281;-72
2020/12/02 04:30:52;;;;;;;16.42;9.73;;;;;;;0.24;78.05;100507.26;1753115;82;21147;-73
2020/12/02 04:33:19;;;;;;;20.85;10.43;;;;;;;0.38;77.82;100516.15;1753276;80;21162;-71
2020/12/02 04:35:47;;;;;;;22.58;12.00;;;;;;;0.39;77.82;100511.37;1753206;82;21337;-71
2020/12/02 04:38:15;;;;;;;22.98;12.05;;;;;;;0.31;78.06;100511.49;1753199;82;21301;-72
2020/12/02 04:40:42;;;;;;;22.85;11.15;;;;;;;0.27;78.02;100508.95;1753149;82;21174;-71
2020/12/02 04:43:31;;;;;;;22.35;11.85;;;;;;;0.42;77.76;100510.04;1753431;82;21317;-71
2020/12/02 04:45:59;;;;;;;22.17;11.48;;;;;;;0.42;77.81;100513.06;1753210;82;21166;-72
2020/12/02 04:48:29;;;;;;;21.48;11.30;;;;;;;0.31;78.06;100514.55;1753165;82;21308;-72
2020/12/02 04:51:16;;;;;;;21.73;11.68;;;;;;;0.24;78.05;100509.86;1753296;82;21175;-71
2020/12/02 04:53:54;;;;;;;22.32;12.00;;;;;;;0.36;77.81;100501.02;1779847;79;22569;-72
2020/12/02 04:56:24;;;;;;;23.83;12.53;;;;;;;0.26;77.91;100499.45;1753140;82;21128;-72
2020/12/02 04:58:52;;;;;;;21.48;10.23;;;;;;;0.18;78.02;100506.08;1753003;82;21131;-72
2020/12/02 05:01:31;;;;;;;25.88;12.53;;;;;;;0.28;77.19;100505.47;1752892;82;21214;-72
2020/12/02 05:04:06;;;;;;;21.23;11.63;;;;;;;0.26;76.84;100500.30;1753204;82;21139;-72
2020/12/02 05:06:40;;;;;;;24.05;11.83;;;;;;;0.16;77.06;100506.08;1753143;82;21687;-71
2020/12/02 05:09:24;;;;;;;21.35;11.57;;;;;;;0.15;77.14;100511.31;1753074;82;21297;-70
2020/12/02 05:12:13;;;;;;;21.90;11.55;;;;;;;0.13;77.05;100502.23;1752871;82;21182;-71
2020/12/02 05:14:44;;;;;;;23.60;11.95;;;;;;;0.11;77.09;100501.84;1753005;82;21547;-71
2020/12/02 05:17:23;;;;;;;19.62;11.38;;;;;;;0.10;76.74;100502.30;1752903;82;21124;-71
2020/12/02 05:20:13;;;;;;;24.40;12.13;;;;;;;0.11;76.73;100510.48;1752868;82;21476;-72
2020/12/02 05:22:47;;;;;;;25.30;13.00;;;;;;;0.12;76.70;100510.92;1752892;82;21297;-71
2020/12/02 05:25:33;;;;;;;23.02;11.57;;;;;;;0.11;76.83;100520.89;1752817;82;21107;-72
2020/12/02 05:28:29;;;;;;;25.10;12.43;;;;;;;0.11;76.74;100516.14;1752956;82;21194;-70
2020/12/02 05:31:16;;;;;;;25.65;12.95;;;;;;;0.08;76.85;100514.45;1753111;82;21155;-71
2020/12/02 05:33:44;;;;;;;23.92;11.57;;;;;;;0.02;77.02;100519.73;1721807;83;21568;-72
2020/12/02 05:36:25;;;;;;;25.62;12.47;;;;;;;0.00;77.19;100520.22;1719292;83;21281;-71
2020/12/02 05:39:15;;;;;;;22.45;11.90;;;;;;;-0.06;77.43;100515.10;1705029;83;21611;-71
2020/12/02 05:41:42;;;;;;;27.15;13.48;;;;;;;-0.03;77.33;100523.69;1722200;83;21325;-71
2020/12/02 05:44:17;;;;;;;21.80;12.35;;;;;;;-0.03;77.50;100526.30;1717681;83;21178;-69
2020/12/02 05:46:57;;;;;;;18.23;10.13;;;;;;;0.11;77.40;100523.95;1702818;83;21588;-71
2020/12/02 05:49:35;;;;;;;23.52;11.33;;;;;;;0.09;77.36;100525.28;1695119;83;21182;-71
2020/12/02 05:52:02;;;;;;;19.52;10.05;;;;;;;0.02;77.50;100529.30;1703675;83;21690;-71
2020/12/02 05:54:29;;;;;;;18.52;9.55;;;;;;;0.10;77.32;100529.61;1723014;83;21131;-72
2020/12/02 05:56:57;;;;;;;18.23;10.23;;;;;;;0.13;77.05;100526.95;1713707;83;21199;-70
2020/12/02 05:59:25;;;;;;;18.02;9.63;;;;;;;0.09;77.14;100525.28;1720375;83;21134;-71
2020/12/02 06:01:54;;;;;;;18.50;9.95;;;;;;;0.04;77.31;100527.09;1703864;83;21169;-71
2020/12/02 06:04:21;;;;;;;20.70;10.28;;;;;;;0.09;77.18;100529.60;1668370;85;21174;-71
2020/12/02 06:06:55;;;;;;;19.45;9.65;;;;;;;0.05;77.53;100531.84;1706872;83;21297;-70
2020/12/02 06:09:39;;;;;;;19.23;11.25;;;;;;;0.13;77.70;100531.30;1707707;83;21324;-71
2020/12/02 06:12:10;;;;;;;22.55;11.50;;;;;;;0.22;77.43;100538.08;1703518;83;21138;-71
2020/12/02 06:14:38;;;;;;;23.00;11.73;;;;;;;0.15;77.77;100548.61;1708810;83;21595;-73
2020/12/02 06:17:06;;;;;;;20.15;11.55;;;;;;;0.10;77.68;100541.73;1697689;83;21186;-73
2020/12/02 06:19:50;;;;;;;22.17;13.18;;;;;;;0.22;77.31;100544.59;1714279;83;21190;-73
2020/12/02 06:22:48;;;;;;;24.50;12.78;;;;;;;0.27;76.88;100542.77;1705446;83;21722;-72
2020/12/02 06:25:53;;;;;;;21.87;12.55;;;;;;;0.13;76.93;100541.25;1723137;83;21297;-72
2020/12/02 06:28:35;;;;;;;26.20;14.10;;;;;;;0.06;77.01;100547.41;1717049;83;21280;-72
2020/12/02 06:31:22;;;;;;;20.82;11.57;;;;;;;0.05;77.09;100544.42;1719086;83;21206;-73
2020/12/02 06:33:51;;;;;;;27.82;14.70;;;;;;;0.06;77.00;100539.61;1716924;83;21183;-72
2020/12/02 06:36:28;;;;;;;21.68;12.53;;;;;;;0.02;77.19;100537.95;1716983;83;21694;-72
2020/12/02 06:39:13;;;;;;;19.48;11.25;;;;;;;0.05;77.17;100540.52;1722432;83;21143;-72
2020/12/02 06:41:42;;;;;;;20.62;10.23;;;;;;;0.14;76.99;100552.08;1720309;83;21134;-72
2020/12/02 06:44:18;;;;;;;18.02;9.90;;;;;;;0.07;77.02;100546.99;1723280;83;21621;-73
2020/12/02 06:47:02;;;;;;;16.80;10.48;;;;;;;0.02;77.08;100548.34;1711186;83;21142;-73
2020/12/02 06:49:33;;;;;;;22.67;11.18;;;;;;;0.08;76.86;100541.77;1693663;85;21214;-73
2020/12/02 06:52:05;;;;;;;16.77;10.35;;;;;;;0.02;76.99;100544.45;1708657;83;21642;-73
2020/12/02 06:54:36;;;;;;;14.20;8.80;;;;;;;0.04;76.84;100553.09;1705941;83;21382;-73
2020/12/02 06:57:25;;;;;;;18.87;10.08;;;;;;;0.00;77.03;100544.92;1708206;83;21297;-73
2020/12/02 07:00:02;;;;;;;17.07;9.45;;;;;;;0.06;76.84;100551.31;1718221;83;21179;-73
2020/12/02 07:02:43;;;;;;;19.77;10.45;;;;;;;0.02;76.95;100552.25;1694293;85;21174;-73
2020/12/02 07:05:39;;;;;;;15.10;8.98;;;;;;;0.03;76.87;100542.72;1703715;83;21154;-72
2020/12/02 07:08:25;;;;;;;18.15;10.23;;;;;;;-0.03;77.03;100542.35;1697707;84;21324;-73
2020/12/02 07:11:06;;;;;;;20.05;9.35;;;;;;;-0.05;77.43;100539.78;1698756;84;21215;-73
2020/12/02 07:13:38;;;;;;;14.95;8.65;;;;;;;-0.02;77.39;100547.98;1723502;83;21186;-73
2020/12/02 07:16:33;;;;;;;14.33;7.80;;;;;;;-0.02;77.15;100546.67;1723418;83;21166;-73
2020/12/02 07:19:13;;;;;;;18.23;9.85;;;;;;;0.02;77.07;100552.25;1723437;83;21289;-73
2020/12/02 07:22:00;;;;;;;14.50;8.05;;;;;;;0.08;76.99;100548.27;1723155;83;21179;-73
2020/12/02 07:24:46;;;;;;;15.45;9.08;;;;;;;0.02;77.09;100550.09;1696564;83;21154;-73
2020/12/02 07:27:15;;;;;;;15.28;9.70;;;;;;;0.03;77.09;100551.38;1720982;82;21195;-73
2020/12/02 07:29:43;;;;;;;19.35;10.78;;;;;;;0.03;76.92;100553.13;1723332;83;21195;-73
2020/12/02 07:32:15;;;;;;;15.15;9.73;;;;;;;0.02;76.99;100550.95;1723188;83;21753;-73
2020/12/02 07:34:43;;;;;;;13.93;8.30;;;;;;;0.02;77.08;100553.55;1720381;83;21316;-74
2020/12/02 07:37:13;;;;;;;16.37;10.48;;;;;;;0.08;77.24;100556.06;1723407;83;21174;-74
2020/12/02 07:39:46;;;;;;;17.10;9.00;;;;;;;0.25;76.88;100546.70;1723248;83;21325;-74
2020/12/02 07:42:24;;;;;;;20.25;11.53;;;;;;;0.23;77.04;100547.61;1723483;83;21171;-74
2020/12/02 07:45:05;;;;;;;14.75;8.75;;;;;;;0.23;77.06;100551.52;1702820;83;21273;-75
2020/12/02 07:47:33;;;;;;;16.45;9.18;;;;;;;0.27;76.89;100560.98;1694373;85;21305;-75
2020/12/02 07:50:08;;;;;;;28.17;15.58;;;;;;;0.30;76.77;100551.85;1696070;83;21181;-74
2020/12/02 07:52:38;;;;;;;16.60;9.98;;;;;;;0.31;76.66;100560.08;1688369;84;21175;-74
2020/12/02 07:55:05;;;;;;;21.70;12.68;;;;;;;0.43;76.05;100555.13;1707373;83;21213;-74
2020/12/02 07:57:34;;;;;;;15.10;8.98;;;;;;;0.39;76.07;100559.52;1723235;83;21587;-74
2020/12/02 08:00:18;;;;;;;18.80;11.05;;;;;;;0.31;76.42;100560.08;1721134;83;21285;-75
2020/12/02 08:02:46;;;;;;;19.27;11.08;;;;;;;0.31;76.46;100562.69;1711075;83;21167;-74
2020/12/02 08:05:24;;;;;;;17.50;9.88;;;;;;;0.30;76.51;100559.66;1701464;83;21630;-75
2020/12/02 08:07:58;;;;;;;16.70;9.38;;;;;;;0.36;76.37;100549.59;1699781;83;21215;-75
2020/12/02 08:10:30;;;;;;;18.98;11.15;;;;;;;0.46;75.96;100549.44;1703181;83;21170;-74
2020/12/02 08:12:58;;;;;;;18.32;10.23;;;;;;;0.41;76.38;100549.95;1700132;83;21771;-75
2020/12/02 08:15:26;;;;;;;17.95;10.95;;;;;;;0.38;76.49;100547.38;1698813;83;21175;-75
2020/12/02 08:18:14;;;;;;;18.00;9.50;;;;;;;0.43;76.46;100548.16;1718645;83;21175;-75
2020/12/02 08:20:44;;;;;;;16.60;8.35;;;;;;;0.45;76.61;100550.31;1694078;85;21277;-75
2020/12/02 08:23:27;;;;;;;14.53;8.85;;;;;;;0.53;76.14;100549.34;1694296;84;21135;-75
2020/12/02 08:26:02;;;;;;;18.67;9.93;;;;;;;0.42;75.50;100524.35;1692073;83;21599;-74
2020/12/02 08:28:37;;;;;;;16.00;9.30;;;;;;;0.47;75.79;100547.26;1720776;83;21167;-74
2020/12/02 08:31:27;;;;;;;16.27;9.25;;;;;;;0.40;75.80;100544.78;1694646;85;21655;-75
2020/12/02 08:34:19;;;;;;;14.68;9.05;;;;;;;0.43;75.63;100546.02;1710495;83;21312;-74
2020/12/02 08:37:12;;;;;;;17.82;10.40;;;;;;;0.38;75.71;100544.77;1722153;83;21162;-74
2020/12/02 08:39:43;;;;;;;17.27;10.43;;;;;;;0.35;75.80;100538.78;1696891;83;21622;-73
2020/12/02 08:42:15;;;;;;;16.25;9.45;;;;;;;0.38;76.09;100546.08;1715489;83;21166;-74
2020/12/02 08:45:21;;;;;;;17.92;10.63;;;;;;;0.50;75.98;100535.94;1720868;83;21199;-74
2020/12/02 08:47:55;;;;;;;16.80;9.30;;;;;;;0.46;76.19;100532.52;1711477;83;21146;-73
2020/12/02 08:50:29;;;;;;;16.75;9.43;;;;;;;0.40;76.14;100535.22;1694409;83;21338;-74
2020/12/02 08:52:58;;;;;;;18.62;10.10;;;;;;;0.43;75.97;100536.45;1693500;83;21190;-74
2020/12/02 08:55:25;;;;;;;18.25;10.50;;;;;;;0.47;75.91;100528.16;1681203;85;22183;-74
2020/12/02 08:57:52;;;;;;;18.62;10.00;;;;;;;0.40;76.14;100534.37;1683157;84;21170;-74
2020/12/02 09:00:21;;;;;;;15.98;9.48;;;;;;;0.39;76.33;100525.68;1685408;84;21627;-74
2020/12/02 09:02:49;;;;;;;19.73;9.38;;;;;;;0.52;75.96;100526.80;1692272;84;21163;-74
2020/12/02 09:05:17;;;;;;;16.87;9.93;;;;;;;0.47;76.06;100535.55;1681324;85;21309;-74
2020/12/02 09:07:44;;;;;;;20.32;10.63;;;;;;;0.36;76.47;100529.65;1686953;84;21163;-75
2020/12/02 09:10:11;;;;;;;18.23;10.00;;;;;;;0.36;76.68;100523.14;1709842;84;21159;-75
2020/12/02 09:12:38;;;;;;;20.88;11.63;;;;;;;0.51;76.46;100529.82;1710012;84;21746;-75
2020/12/02 09:15:06;;;;;;;19.42;10.70;;;;;;;0.57;76.33;100528.87;1692159;84;21171;-75
2020/12/02 09:17:33;;;;;;;14.35;7.85;;;;;;;0.55;76.47;100520.23;1709784;84;21301;-75
2020/12/02 09:20:00;;;;;;;16.45;8.95;;;;;;;0.54;76.68;100521.98;1700370;84;21615;-75
2020/12/02 09:22:27;;;;;;;19.50;11.38;;;;;;;0.63;76.44;100513.16;1637060;88;21620;-74
2020/12/02 09:24:54;;;;;;;19.10;9.88;;;;;;;0.75;76.28;100515.53;1681381;85;21190;-74
2020/12/02 09:27:21;;;;;;;15.63;8.68;;;;;;;0.74;76.27;100508.63;1636710;87;21790;-75
2020/12/02 09:29:48;;;;;;;21.37;10.98;;;;;;;0.63;76.28;100510.56;1681047;85;21151;-75
2020/12/02 09:32:16;;;;;;;16.25;10.13;;;;;;;0.61;76.57;100513.16;1691865;84;21237;-75
2020/12/02 09:34:43;;;;;;;17.35;8.43;;;;;;;0.78;76.25;100511.59;1700105;83;21184;-74
2020/12/02 09:37:14;;;;;;;19.62;11.25;;;;;;;0.80;75.80;100512.41;1681177;85;21734;-75
2020/12/02 09:39:42;;;;;;;20.32;11.68;;;;;;;0.62;76.27;100508.84;1681367;85;21593;-75
2020/12/02 09:42:51;;;;;;;19.80;11.75;;;;;;;0.57;76.55;100509.36;1681317;85;21695;-74
2020/12/02 09:45:57;;;;;;;21.90;12.05;;;;;;;0.65;76.52;100504.86;1665013;86;21649;-73
2020/12/02 09:48:27;;;;;;;20.52;11.88;;;;;;;0.67;76.54;100501.80;1653191;87;21213;-73
2020/12/02 09:50:54;;;;;;;20.27;12.20;;;;;;;0.89;75.60;100504.87;1675303;85;21211;-74
2020/12/02 09:53:26;;;;;;;19.07;10.60;;;;;;;0.94;75.45;100502.20;1681199;84;21330;-74
2020/12/02 09:55:55;;;;;;;21.57;10.10;;;;;;;0.87;75.80;100505.36;1681570;85;21337;-73
2020/12/02 09:58:23;;;;;;;16.93;9.00;;;;;;;0.77;75.87;100502.52;1661617;85;21199;-74
2020/12/02 10:00:54;;;;;;;17.07;9.98;;;;;;;0.76;75.92;100505.54;1681440;85;21796;-75
2020/12/02 10:03:57;;;;;;;22.45;12.50;;;;;;;0.84;75.80;100508.46;1681191;85;21171;-74
2020/12/02 10:07:08;;;;;;;17.50;9.60;;;;;;;0.79;75.85;100505.50;1681427;85;21171;-74
2020/12/02 10:09:54;;;;;;;19.07;10.53;;;;;;;0.75;76.02;100505.57;1681180;85;21632;-74
2020/12/02 10:12:29;;;;;;;19.75;11.22;;;;;;;0.63;76.25;100504.05;1684001;84;21486;-74
2020/12/02 10:15:08;;;;;;;21.05;12.45;;;;;;;0.51;76.37;100500.34;1693401;83;21804;-75
2020/12/02 10:18:01;;;;;;;25.30;14.95;;;;;;;0.48;76.44;100507.77;1690176;84;21131;-74
2020/12/02 10:23:39;;;;;;;25.82;12.20;;;;;;;0.53;76.57;100509.00;1847785;77;23169;-74
2020/12/02 10:26:37;;;;;;;61.30;32.10;;;;;;;0.36;76.93;100517.06;1793711;80;21755;-74
2020/12/02 10:29:15;;;;;;;34.30;16.82;;;;;;;0.39;76.95;100513.97;1796089;78;21286;-74
2020/12/02 10:32:02;;;;;;;16.97;9.55;;;;;;;0.47;77.01;100508.64;1809494;78;21601;-74
2020/12/02 10:34:34;;;;;;;24.57;14.13;;;;;;;0.66;76.66;100509.19;1805172;78;21294;-73
2020/12/02 10:37:16;;;;;;;21.70;12.65;;;;;;;0.61;76.64;100520.12;1790413;80;21135;-73
2020/12/02 10:39:43;;;;;;;18.20;10.43;;;;;;;0.54;76.72;100507.66;1763422;81;21132;-74
2020/12/02 10:42:51;;;;;;;24.20;12.43;;;;;;;0.48;76.94;100506.46;1763690;81;21192;-74
2020/12/02 10:45:21;;;;;;;21.55;11.12;;;;;;;0.54;76.87;100502.88;1765285;80;21214;-74
2020/12/02 10:48:11;;;;;;;19.17;10.35;;;;;;;0.53;76.75;100502.03;1763689;80;21094;-74
2020/12/02 10:50:39;;;;;;;25.62;13.78;;;;;;;0.71;76.53;100500.02;1753832;81;21152;-74
2020/12/02 10:53:11;;;;;;;22.32;11.70;;;;;;;0.75;76.34;100500.37;1760225;81;21600;-74
2020/12/02 10:55:40;;;;;;;27.75;12.90;;;;;;;0.69;76.29;100501.34;1750865;81;21102;-74
2020/12/02 10:58:21;;;;;;;21.97;12.10;;;;;;;0.66;76.23;100493.57;1706609;83;21186;-73
2020/12/02 11:00:52;;;;;;;24.47;13.05;;;;;;;0.73;76.12;100499.09;1741596;81;21572;-74
2020/12/02 11:03:32;;;;;;;35.40;20.00;;;;;;;0.66;76.37;100498.78;1749901;81;21303;-74
2020/12/02 11:06:29;;;;;;;31.95;17.17;;;;;;;0.68;76.41;100503.95;1718221;83;21158;-74
2020/12/02 11:09:40;;;;;;;24.20;14.90;;;;;;;0.75;76.43;100502.52;1734895;83;21551;-74
2020/12/02 11:12:31;;;;;;;35.30;17.73;;;;;;;0.75;76.43;100499.06;1688005;84;21261;-73
2020/12/02 11:15:27;;;;;;;50.40;24.02;;;;;;;0.74;76.35;100497.34;1696493;84;21336;-74
2020/12/02 11:18:18;;;;;;;25.70;13.22;;;;;;;0.75;76.46;100497.30;1694215;83;21170;-74
2020/12/02 11:21:08;;;;;;;21.90;13.62;;;;;;;0.78;76.35;100490.76;1707779;83;21311;-74
2020/12/02 11:24:19;;;;;;;22.15;13.30;;;;;;;0.84;76.12;100485.87;1716359;83;21174;-74
2020/12/02 11:26:46;;;;;;;22.35;11.83;;;;;;;0.99;75.71;100482.13;1700774;83;21120;-74
2020/12/02 11:29:15;;;;;;;19.12;11.75;;;;;;;0.94;75.72;100491.78;1720229;83;21150;-74
2020/12/02 11:31:55;;;;;;;19.45;13.08;;;;;;;0.87;76.07;100487.13;1716947;81;21196;-74
2020/12/02 11:35:06;;;;;;;19.27;10.00;;;;;;;0.83;76.31;100497.63;1703252;83;21136;-74
2020/12/02 11:37:44;;;;;;;22.93;14.15;;;;;;;0.89;76.13;100489.70;1728255;83;21777;-74
2020/12/02 11:40:19;;;;;;;20.45;11.50;;;;;;;0.84;76.29;100486.33;1699461;84;21302;-74
2020/12/02 11:43:09;;;;;;;23.40;12.07;;;;;;;0.75;76.48;100488.19;1719514;83;21278;-74
2020/12/02 11:45:39;;;;;;;20.82;10.88;;;;;;;0.70;76.74;100488.72;1713736;83;21138;-73
2020/12/02 11:48:21;;;;;;;22.02;13.25;;;;;;;0.81;76.51;100485.94;1708731;83;21198;-73
2020/12/02 11:51:07;;;;;;;30.32;17.50;;;;;;;0.73;76.88;100487.38;1710985;83;21252;-73
2020/12/02 11:53:58;;;;;;;33.80;23.45;;;;;;;0.70;77.03;100493.92;1728623;82;21197;-73
2020/12/02 11:56:34;;;;;;;29.55;20.68;;;;;;;0.70;77.12;100487.42;1717460;83;21186;-73
2020/12/02 11:59:07;;;;;;;22.10;14.33;;;;;;;0.88;76.71;100487.98;1728412;83;21107;-74
2020/12/02 12:01:54;;;;;;;25.05;16.32;;;;;;;0.81;76.92;100491.14;1729017;82;21599;-74